< < Back
Terminal Aerodrome Forecast


Current Version              Previous Versions:   1  2  3  4  5  6  7  8  9  

Terminal Aerodrome Forecast

661
FTUS42 KCHS 030931 AAB
TAFSAV
TAF AMD
KSAV 030931Z 0310/0406 VRB03KT P6SM VCSH SCT025 BKN080
      TEMPO 0310/0312 BKN025
     FM031400 VRB05KT P6SM SCT030 BKN250=

Latest METAR

601
SAUS80 KWBC 040200 RRA
MTRSAV
METAR KSAV 040153Z 18006KT 10SM FEW060 SCT140 BKN200 27/24 A2992 RMK AO2
SLP131 T02670244


USA.gov is the U.S. government's official web portal to all federal, state and local government web resources and services.